Cape Hatteras Natl Seashore, North Carolina
Current Conditions -  °F | °C
As of 7:51 PM on Monday 22 Dec 2014 (Local Time) from KHSE Reporting Station
Moderate Fog Moderate Fog  
Wind Chill: 11°   Ceiling: 300
Heat Index: 11°   Visibility: 0.5mi
Dew Point: 11°   Wind: 5mph
Humidity: 100%   Direction: 280°W
Pressure: 29.97"   Gusts: NA
Location:  35.22°N, 75.68°W
Report Text: KHSE 230051Z AUTO 28004KT 1/2SM FG VV003 11/11 A2997 RMK AO2 SLP147 T01060106 TSNO $
Loading
Personal Weather Stations






























Interactive Weather Map New forecast layout! Learn more

10-Day Weather Forecast

Advertisements
Track Severe Weather on mobile